createdAt,value
2019-03-27T00:03:16.725Z,8.50
2019-03-27T00:08:22.590Z,8.50
2019-03-27T00:13:28.183Z,8.60
2019-03-27T00:18:34.392Z,8.50
2019-03-27T00:23:40.368Z,8.40
2019-03-27T00:28:45.984Z,8.50
2019-03-27T00:33:51.728Z,8.40
2019-03-27T00:38:57.081Z,8.40
2019-03-27T00:44:03.132Z,8.30
2019-03-27T00:49:08.617Z,8.30
2019-03-27T00:54:14.356Z,8.40
2019-03-27T00:59:19.869Z,8.30
2019-03-27T01:04:25.623Z,8.30
2019-03-27T01:09:31.596Z,8.20
2019-03-27T01:14:37.042Z,8.20
2019-03-27T01:24:47.212Z,8.10
2019-03-27T01:29:52.532Z,8.10
2019-03-27T01:34:58.638Z,8.10
2019-03-27T01:40:04.405Z,8.10
2019-03-27T01:45:10.350Z,8.10
2019-03-27T01:50:16.143Z,8.00
2019-03-27T01:55:21.557Z,7.90
2019-03-27T02:00:27.123Z,7.90
2019-03-27T02:05:32.808Z,7.80
2019-03-27T02:10:38.284Z,7.70
2019-03-27T02:15:43.760Z,7.60
2019-03-27T02:20:49.217Z,7.70
2019-03-27T02:25:54.624Z,7.60
2019-03-27T02:31:00.040Z,7.60
2019-03-27T02:36:05.846Z,7.50
2019-03-27T02:41:11.454Z,7.50
2019-03-27T02:46:24.734Z,7.50
2019-03-27T02:51:24.326Z,7.50
2019-03-27T02:56:30.090Z,7.50
2019-03-27T03:01:35.865Z,7.50
2019-03-27T03:06:41.583Z,7.60
2019-03-27T03:11:47.279Z,7.60
2019-03-27T03:16:52.610Z,7.40
2019-03-27T03:21:58.337Z,7.50
2019-03-27T03:27:04.288Z,7.70
2019-03-27T03:32:09.820Z,7.60
2019-03-27T03:37:15.870Z,7.70
2019-03-27T03:42:21.789Z,7.60
2019-03-27T03:47:27.086Z,7.50
2019-03-27T03:52:32.810Z,7.50
2019-03-27T03:57:38.714Z,7.60
2019-03-27T04:02:46.770Z,7.60
2019-03-27T04:07:52.122Z,7.20
2019-03-27T04:12:57.815Z,7.60
2019-03-27T04:18:03.317Z,7.40
2019-03-27T04:23:08.808Z,7.50
2019-03-27T04:28:14.626Z,7.20
2019-03-27T04:33:20.133Z,7.30
2019-03-27T04:38:25.840Z,7.20
2019-03-27T04:43:31.342Z,7.20
2019-03-27T04:48:36.808Z,7.00
2019-03-27T04:53:42.575Z,7.20
2019-03-27T04:58:48.200Z,7.10
2019-03-27T05:03:54.214Z,7.00
2019-03-27T05:08:59.640Z,6.90
2019-03-27T05:14:05.181Z,6.90
2019-03-27T05:19:10.904Z,7.00
2019-03-27T05:24:17.001Z,7.00
2019-03-27T05:29:22.613Z,6.70
2019-03-27T05:34:28.073Z,7.10
2019-03-27T05:39:33.564Z,7.00
2019-03-27T05:44:39.322Z,7.10
2019-03-27T05:49:44.830Z,7.00
2019-03-27T05:54:50.482Z,7.20
2019-03-27T05:59:56.149Z,7.20
2019-03-27T06:05:02.207Z,7.20
2019-03-27T06:10:08.565Z,7.30
2019-03-27T06:15:14.318Z,7.20
2019-03-27T06:20:19.862Z,7.10
2019-03-27T06:25:25.738Z,7.20
2019-03-27T06:30:31.172Z,7.20
2019-03-27T06:35:36.880Z,7.30
2019-03-27T06:40:42.422Z,7.40
2019-03-27T06:45:48.173Z,7.40
2019-03-27T06:50:53.792Z,7.50
2019-03-27T06:55:59.300Z,7.60
2019-03-27T07:01:04.778Z,7.60
2019-03-27T07:06:10.286Z,7.50
2019-03-27T07:11:15.776Z,7.70
2019-03-27T07:16:21.182Z,7.70
2019-03-27T07:21:26.748Z,8.00
2019-03-27T07:26:32.461Z,8.00
2019-03-27T07:31:38.377Z,7.80
2019-03-27T07:36:44.688Z,8.00
2019-03-27T07:41:50.093Z,8.10
2019-03-27T07:46:55.857Z,8.20
2019-03-27T07:52:01.609Z,8.20
2019-03-27T07:57:07.036Z,7.80
2019-03-27T08:02:12.703Z,7.70
2019-03-27T08:07:26.685Z,7.70
2019-03-27T08:12:25.529Z,7.90
2019-03-27T08:17:31.273Z,8.40
2019-03-27T08:22:36.720Z,8.70
2019-03-27T08:27:42.175Z,8.50
2019-03-27T08:32:47.519Z,8.60
2019-03-27T08:37:53.016Z,8.50
2019-03-27T08:42:58.785Z,8.60
2019-03-27T08:48:04.373Z,8.80
2019-03-27T08:53:10.321Z,9.20
2019-03-27T08:58:15.680Z,9.80
2019-03-27T09:03:21.119Z,9.00
2019-03-27T09:08:26.617Z,9.00
2019-03-27T09:13:32.328Z,9.10
2019-03-27T09:18:38.163Z,8.50
2019-03-27T09:23:45.657Z,8.50
2019-03-27T09:28:50.722Z,8.60
2019-03-27T09:33:56.785Z,9.00
2019-03-27T09:39:02.674Z,9.00
2019-03-27T09:44:08.102Z,9.10
2019-03-27T09:49:14.665Z,9.10
2019-03-27T09:54:20.021Z,9.50
2019-03-27T09:59:25.807Z,9.50
2019-03-27T10:04:31.419Z,9.30
2019-03-27T10:09:36.842Z,9.40
2019-03-27T10:14:42.815Z,9.20
2019-03-27T10:24:53.099Z,9.80
2019-03-27T10:29:58.761Z,9.70
2019-03-27T10:35:04.824Z,10.00
2019-03-27T10:40:10.929Z,10.10
2019-03-27T10:45:16.480Z,10.50
2019-03-27T10:50:22.127Z,9.80
2019-03-27T10:55:27.686Z,9.50
2019-03-27T11:00:33.301Z,9.50
2019-03-27T11:05:39.813Z,9.40
2019-03-27T11:10:45.497Z,9.40
2019-03-27T11:15:50.937Z,9.80
2019-03-27T11:20:56.623Z,9.90
2019-03-27T11:26:02.314Z,10.10
2019-03-27T11:31:08.120Z,10.30
2019-03-27T11:36:13.794Z,10.30
2019-03-27T11:41:19.136Z,10.40
2019-03-27T11:46:24.568Z,10.40
2019-03-27T11:51:30.253Z,9.90
2019-03-27T11:56:35.947Z,10.20
2019-03-27T12:01:43.781Z,10.80
2019-03-27T12:06:48.814Z,11.00
2019-03-27T12:11:54.502Z,10.50
2019-03-27T12:17:00.126Z,10.90
2019-03-27T12:22:05.641Z,11.10
2019-03-27T12:27:11.201Z,10.90
2019-03-27T12:32:17.086Z,10.80
2019-03-27T12:37:22.767Z,10.50
2019-03-27T12:42:28.222Z,11.00
2019-03-27T12:47:33.929Z,11.10
2019-03-27T12:52:39.629Z,11.80
2019-03-27T12:57:45.309Z,11.90
2019-03-27T13:02:51.017Z,10.90
2019-03-27T13:07:56.833Z,12.00
2019-03-27T13:13:02.727Z,11.80
2019-03-27T13:18:08.475Z,11.10
2019-03-27T13:23:13.986Z,11.70
2019-03-27T13:28:19.425Z,11.10
2019-03-27T13:33:25.149Z,10.80
2019-03-27T13:38:30.748Z,10.80
2019-03-27T13:43:36.387Z,10.50
2019-03-27T13:48:41.857Z,10.70
2019-03-27T13:53:47.829Z,10.60
2019-03-27T13:58:53.577Z,11.20
2019-03-27T14:03:59.276Z,11.20
2019-03-27T14:09:07.976Z,11.10
2019-03-27T14:14:13.330Z,11.00
2019-03-27T14:19:18.769Z,11.10
2019-03-27T14:24:24.129Z,11.00
2019-03-27T14:29:29.745Z,11.20
2019-03-27T14:34:35.162Z,11.30
2019-03-27T14:39:40.681Z,10.90
2019-03-27T14:44:46.025Z,10.70
2019-03-27T14:49:51.769Z,10.70
2019-03-27T14:54:57.202Z,10.60
2019-03-27T15:00:03.329Z,11.10
2019-03-27T15:05:09.611Z,11.10
2019-03-27T15:10:16.068Z,10.90
2019-03-27T15:15:21.581Z,10.70
2019-03-27T15:20:27.012Z,11.30
2019-03-27T15:25:32.524Z,11.50
2019-03-27T15:30:37.869Z,11.10
2019-03-27T15:35:44.695Z,10.80
2019-03-27T15:40:50.332Z,11.20
2019-03-27T15:45:55.880Z,10.70
2019-03-27T15:51:01.777Z,11.00
2019-03-27T15:56:07.648Z,11.20
2019-03-27T16:01:13.410Z,10.90
2019-03-27T16:06:19.494Z,10.70
2019-03-27T16:11:25.228Z,10.70
2019-03-27T16:16:30.992Z,10.90
2019-03-27T16:21:37.874Z,11.10
2019-03-27T16:26:43.806Z,11.20
2019-03-27T16:31:49.406Z,10.70
2019-03-27T16:36:54.954Z,10.90
2019-03-27T16:42:02.581Z,10.90
2019-03-27T16:47:08.181Z,10.90
2019-03-27T16:52:13.641Z,11.10
2019-03-27T16:57:19.354Z,11.20
2019-03-27T17:02:24.891Z,10.90
2019-03-27T17:07:30.609Z,10.80
2019-03-27T17:12:36.559Z,10.80
2019-03-27T17:17:41.845Z,11.30
2019-03-27T17:22:47.498Z,11.30
2019-03-27T17:27:55.699Z,11.30
2019-03-27T17:33:00.677Z,11.40
2019-03-27T17:38:06.364Z,11.30
2019-03-27T17:43:11.801Z,11.30
2019-03-27T17:48:17.776Z,11.30
2019-03-27T17:53:31.584Z,11.30
2019-03-27T17:58:31.270Z,11.30
2019-03-27T18:03:36.748Z,11.30
2019-03-27T18:08:42.827Z,11.40
2019-03-27T18:13:48.678Z,11.20
2019-03-27T18:18:54.454Z,11.20
2019-03-27T18:24:00.201Z,11.30
2019-03-27T18:29:05.697Z,11.30
2019-03-27T18:34:11.177Z,11.30
2019-03-27T18:39:16.868Z,11.20
2019-03-27T18:44:22.624Z,11.20
2019-03-27T18:49:28.089Z,11.00
2019-03-27T18:54:33.890Z,11.00
2019-03-27T18:59:39.402Z,11.10
2019-03-27T19:04:45.018Z,11.20
2019-03-27T19:09:50.632Z,11.20
2019-03-27T19:14:56.041Z,11.20
2019-03-27T19:20:01.688Z,11.10
2019-03-27T19:25:07.849Z,11.10
2019-03-27T19:30:13.549Z,11.00
2019-03-27T19:35:19.500Z,10.90
2019-03-27T19:40:24.985Z,10.90
2019-03-27T19:45:30.484Z,10.90
2019-03-27T19:50:36.574Z,11.00
2019-03-27T19:55:42.269Z,11.10
2019-03-27T20:00:47.889Z,11.10
2019-03-27T20:05:53.786Z,11.10
2019-03-27T20:10:59.544Z,11.10
2019-03-27T20:16:06.080Z,11.00
2019-03-27T20:21:12.295Z,11.10
2019-03-27T20:26:18.111Z,11.10
2019-03-27T20:31:24.301Z,11.10
2019-03-27T20:36:29.933Z,11.00
2019-03-27T20:41:35.703Z,11.00
2019-03-27T20:46:41.149Z,10.90
2019-03-27T20:51:46.926Z,10.80
2019-03-27T20:56:52.905Z,10.70
2019-03-27T21:01:58.273Z,10.70
2019-03-27T21:07:03.709Z,10.60
2019-03-27T21:12:09.144Z,10.60
2019-03-27T21:17:14.578Z,10.60
2019-03-27T21:22:20.012Z,10.60
2019-03-27T21:27:25.726Z,10.60
2019-03-27T21:32:31.197Z,10.60
2019-03-27T21:37:36.580Z,10.50
2019-03-27T21:42:42.195Z,10.40
2019-03-27T21:47:47.649Z,10.60
2019-03-27T21:53:00.539Z,10.50
2019-03-27T21:58:00.453Z,10.50
2019-03-27T22:03:05.905Z,10.60
2019-03-27T22:08:11.640Z,10.50
2019-03-27T22:13:17.349Z,10.40
2019-03-27T22:18:22.699Z,10.30
2019-03-27T22:23:28.387Z,10.30
2019-03-27T22:28:53.001Z,10.30
2019-03-27T22:33:59.844Z,10.40
2019-03-27T22:39:08.222Z,10.40
2019-03-27T22:44:13.955Z,10.50
2019-03-27T22:49:19.388Z,10.50
2019-03-27T22:54:24.888Z,10.40
2019-03-27T22:59:30.500Z,10.30
2019-03-27T23:04:36.701Z,10.30
2019-03-27T23:09:42.061Z,10.20
2019-03-27T23:14:47.885Z,10.30
2019-03-27T23:19:53.550Z,10.30
2019-03-27T23:24:59.621Z,10.20
2019-03-27T23:30:06.820Z,10.10
2019-03-27T23:35:12.912Z,10.10
2019-03-27T23:40:18.361Z,10.10
2019-03-27T23:45:23.805Z,10.00
2019-03-27T23:50:29.352Z,10.00
2019-03-27T23:55:34.721Z,9.90
